createdAt,value
2023-08-12T00:00:45.789Z,3.88
2023-08-12T00:03:12.426Z,3.97
2023-08-12T00:05:41.004Z,3.65
2023-08-12T00:08:07.460Z,3.63
2023-08-12T00:10:33.884Z,3.75
2023-08-12T00:13:00.501Z,3.70
2023-08-12T00:15:27.052Z,3.60
2023-08-12T00:17:53.755Z,4.03
2023-08-12T00:20:20.241Z,3.80
2023-08-12T00:22:46.758Z,4.03
2023-08-12T00:25:13.335Z,3.60
2023-08-12T00:27:39.894Z,3.80
2023-08-12T00:30:06.790Z,3.67
2023-08-12T00:32:33.268Z,3.85
2023-08-12T00:34:59.715Z,3.72
2023-08-12T00:37:26.175Z,3.85
2023-08-12T00:39:52.716Z,3.22
2023-08-12T00:42:19.161Z,3.80
2023-08-12T00:44:45.683Z,3.72
2023-08-12T00:47:12.537Z,3.60
2023-08-12T00:49:41.145Z,3.65
2023-08-12T00:52:07.716Z,3.95
2023-08-12T00:54:34.222Z,3.88
2023-08-12T00:57:00.666Z,3.65
2023-08-12T00:59:27.222Z,3.70
2023-08-12T01:01:53.693Z,4.22
2023-08-12T01:04:20.951Z,3.92
2023-08-12T01:06:47.433Z,3.60
2023-08-12T01:09:13.940Z,3.85
2023-08-12T01:11:50.094Z,3.47
2023-08-12T01:14:26.885Z,3.25
2023-08-12T01:16:59.759Z,3.75
2023-08-12T01:19:35.238Z,3.50
2023-08-12T01:22:03.363Z,4.43
2023-08-12T01:24:38.056Z,3.90
2023-08-12T01:27:05.733Z,3.25
2023-08-12T01:29:34.152Z,3.50
2023-08-12T01:32:11.542Z,3.97
2023-08-12T01:34:48.667Z,3.78
2023-08-12T01:37:24.369Z,4.30
2023-08-12T01:39:51.200Z,3.80
2023-08-12T01:42:20.397Z,3.88
2023-08-12T01:44:47.365Z,3.75
2023-08-12T01:47:14.817Z,3.70
2023-08-12T01:49:41.361Z,4.15
2023-08-12T01:52:07.815Z,3.90
2023-08-12T01:54:35.649Z,4.05
2023-08-12T01:57:06.706Z,3.85
2023-08-12T01:59:33.578Z,3.88
2023-08-12T02:02:00.054Z,3.97
2023-08-12T02:04:27.726Z,4.25
2023-08-12T02:06:55.435Z,4.15
2023-08-12T02:09:21.949Z,3.80
2023-08-12T02:11:48.402Z,3.78
2023-08-12T02:14:14.910Z,4.35
2023-08-12T02:16:41.587Z,3.58
2023-08-12T02:19:08.822Z,3.63
2023-08-12T02:21:35.752Z,3.47
2023-08-12T02:24:02.245Z,3.92
2023-08-12T02:26:28.699Z,3.65
2023-08-12T02:28:55.171Z,4.03
2023-08-12T02:31:22.417Z,4.03
2023-08-12T02:33:50.428Z,3.45
2023-08-12T02:36:17.279Z,3.72
2023-08-12T02:38:44.019Z,3.80
2023-08-12T02:41:10.521Z,4.13
2023-08-12T02:43:36.997Z,3.90
2023-08-12T02:46:03.591Z,3.78
2023-08-12T02:48:30.069Z,3.45
2023-08-12T02:50:56.570Z,4.28
2023-08-12T02:53:23.038Z,3.78
2023-08-12T02:55:49.552Z,3.67
2023-08-12T02:58:16.025Z,3.67
2023-08-12T03:00:44.790Z,3.78
2023-08-12T03:03:11.442Z,4.13
2023-08-12T03:05:38.259Z,4.20
2023-08-12T03:08:06.272Z,4.00
2023-08-12T03:10:34.706Z,4.35
2023-08-12T03:13:01.603Z,4.30
2023-08-12T03:15:28.127Z,4.07
2023-08-12T03:17:57.847Z,4.00
2023-08-12T03:20:24.499Z,4.20
2023-08-12T03:22:51.225Z,4.30
2023-08-12T03:25:18.079Z,4.55
2023-08-12T03:27:45.916Z,3.72
2023-08-12T03:30:12.841Z,4.25
2023-08-12T03:32:40.753Z,3.90
2023-08-12T03:35:07.512Z,4.43
2023-08-12T03:37:34.822Z,4.35
2023-08-12T03:40:01.610Z,4.07
2023-08-12T03:42:28.194Z,4.25
2023-08-12T03:44:54.713Z,3.85
2023-08-12T03:47:24.625Z,4.05
2023-08-12T03:49:51.546Z,4.90
2023-08-12T03:52:18.300Z,3.90
2023-08-12T03:54:44.760Z,4.20
2023-08-12T03:57:12.606Z,3.92
2023-08-12T03:59:39.230Z,4.07
2023-08-12T04:02:06.969Z,4.03
2023-08-12T04:04:33.437Z,5.07
2023-08-12T04:06:59.921Z,3.70
2023-08-12T04:09:26.378Z,4.30
2023-08-12T04:11:52.849Z,3.97
2023-08-12T04:14:19.655Z,4.15
2023-08-12T04:16:46.222Z,3.90
2023-08-12T04:19:13.264Z,4.22
2023-08-12T04:21:39.754Z,4.20
2023-08-12T04:24:06.811Z,4.10
2023-08-12T04:26:33.261Z,4.07
2023-08-12T04:29:00.060Z,4.00
2023-08-12T04:31:27.218Z,4.60
2023-08-12T04:33:54.025Z,5.13
2023-08-12T04:36:22.338Z,4.22
2023-08-12T04:38:49.742Z,4.32
2023-08-12T04:41:16.283Z,4.75
2023-08-12T04:43:42.861Z,4.80
2023-08-12T04:46:09.985Z,4.55
2023-08-12T04:48:36.795Z,5.05
2023-08-12T04:51:04.247Z,4.40
2023-08-12T04:53:30.835Z,4.85
2023-08-12T04:55:57.939Z,4.75
2023-08-12T04:58:24.531Z,4.93
2023-08-12T05:00:53.169Z,4.63
2023-08-12T05:03:21.033Z,4.43
2023-08-12T05:05:52.803Z,4.40
2023-08-12T05:08:20.896Z,4.03
2023-08-12T05:10:50.657Z,4.40
2023-08-12T05:13:18.079Z,4.40
2023-08-12T05:15:48.360Z,4.65
2023-08-12T05:18:16.832Z,4.35
2023-08-12T05:20:46.701Z,4.50
2023-08-12T05:23:13.951Z,4.50
2023-08-12T05:25:40.699Z,4.47
2023-08-12T05:28:07.261Z,4.80
2023-08-12T05:30:33.774Z,4.00
2023-08-12T05:33:00.269Z,4.50
2023-08-12T05:35:27.137Z,4.22
2023-08-12T05:37:54.110Z,4.25
2023-08-12T05:40:20.541Z,4.55
2023-08-12T05:42:47.020Z,4.50
2023-08-12T05:45:13.459Z,4.35
2023-08-12T05:47:39.931Z,4.32
2023-08-12T05:50:07.528Z,4.43
2023-08-12T05:52:34.139Z,4.25
2023-08-12T05:55:00.646Z,4.07
2023-08-12T05:57:29.449Z,4.53
2023-08-12T05:59:56.418Z,4.60
2023-08-12T06:02:22.867Z,4.82
2023-08-12T06:04:49.318Z,4.72
2023-08-12T06:07:15.774Z,4.65
2023-08-12T06:09:42.207Z,4.85
2023-08-12T06:12:08.657Z,4.68
2023-08-12T06:14:38.602Z,4.22
2023-08-12T06:17:05.071Z,4.53
2023-08-12T06:19:31.488Z,4.90
2023-08-12T06:21:57.941Z,4.43
2023-08-12T06:24:24.461Z,4.22
2023-08-12T06:26:50.927Z,4.63
2023-08-12T06:29:17.476Z,4.07
2023-08-12T06:31:43.975Z,4.78
2023-08-12T06:34:10.428Z,4.85
2023-08-12T06:36:36.867Z,4.40
2023-08-12T06:39:04.484Z,4.55
2023-08-12T06:41:30.935Z,4.47
2023-08-12T06:43:57.375Z,4.78
2023-08-12T06:46:23.908Z,4.35
2023-08-12T06:48:50.399Z,5.38
2023-08-12T06:51:16.862Z,4.82
2023-08-12T06:53:43.290Z,4.40
2023-08-12T06:56:10.065Z,4.38
2023-08-12T06:58:36.497Z,4.65
2023-08-12T07:01:03.044Z,4.28
2023-08-12T07:03:29.592Z,4.68
2023-08-12T07:05:56.114Z,4.95
2023-08-12T07:08:22.612Z,4.50
2023-08-12T07:10:49.083Z,4.78
2023-08-12T07:13:15.509Z,4.57
2023-08-12T07:15:42.014Z,4.88
2023-08-12T07:18:08.498Z,4.47
2023-08-12T07:20:34.964Z,4.30
2023-08-12T07:23:01.437Z,5.10
2023-08-12T07:25:27.874Z,5.07
2023-08-12T07:27:54.354Z,4.75
2023-08-12T07:30:20.810Z,4.60
2023-08-12T07:32:47.309Z,5.20
2023-08-12T07:35:13.757Z,4.95
2023-08-12T07:37:40.228Z,4.60
2023-08-12T07:40:07.314Z,5.03
2023-08-12T07:42:33.832Z,4.20
2023-08-12T07:45:00.303Z,5.43
2023-08-12T07:47:26.748Z,5.15
2023-08-12T07:49:53.195Z,5.03
2023-08-12T07:52:19.637Z,5.13
2023-08-12T07:54:46.094Z,5.50
2023-08-12T07:57:12.551Z,5.40
2023-08-12T07:59:38.990Z,6.15
2023-08-12T08:02:06.084Z,5.22
2023-08-12T08:04:32.597Z,5.28
2023-08-12T08:06:59.128Z,5.50
2023-08-12T08:09:25.835Z,5.10
2023-08-12T08:11:53.689Z,4.95
2023-08-12T08:14:21.274Z,5.50
2023-08-12T08:16:47.760Z,5.95
2023-08-12T08:19:14.352Z,5.38
2023-08-12T08:21:41.004Z,5.30
2023-08-12T08:24:07.918Z,5.30
2023-08-12T08:26:34.398Z,5.40
2023-08-12T08:29:00.894Z,4.80
2023-08-12T08:31:27.339Z,5.15
2023-08-12T08:33:53.786Z,5.10
2023-08-12T08:36:20.744Z,5.63
2023-08-12T08:38:47.195Z,5.85
2023-08-12T08:41:15.030Z,5.60
2023-08-12T08:43:44.817Z,5.28
2023-08-12T08:46:15.175Z,5.60
2023-08-12T08:48:42.934Z,5.65
2023-08-12T08:51:10.633Z,5.43
2023-08-12T08:56:14.572Z,5.57
2023-08-12T08:58:41.531Z,5.05
2023-08-12T09:01:08.317Z,5.53
2023-08-12T09:03:38.747Z,5.50
2023-08-12T09:06:05.574Z,6.03
2023-08-12T09:08:35.635Z,5.43
2023-08-12T09:11:03.157Z,5.07
2023-08-12T09:13:30.695Z,5.80
2023-08-12T09:15:57.305Z,5.65
2023-08-12T09:18:25.468Z,5.60
2023-08-12T09:20:52.606Z,6.10
2023-08-12T09:23:19.592Z,6.35
2023-08-12T09:25:46.550Z,5.88
2023-08-12T09:28:13.636Z,5.60
2023-08-12T09:30:40.918Z,6.03
2023-08-12T09:33:08.867Z,6.00
2023-08-12T09:35:39.508Z,5.80
2023-08-12T09:40:35.370Z,5.45
2023-08-12T09:43:02.528Z,5.50
2023-08-12T09:45:29.628Z,6.00
2023-08-12T09:47:56.188Z,6.07
2023-08-12T09:50:26.414Z,6.10
2023-08-12T09:52:54.588Z,5.93
2023-08-12T09:55:23.218Z,5.47
2023-08-12T09:57:53.311Z,6.63
2023-08-12T10:00:21.782Z,6.50
2023-08-12T10:02:50.788Z,6.30
2023-08-12T10:05:22.736Z,6.28
2023-08-12T10:07:49.672Z,5.80
2023-08-12T10:10:16.717Z,6.68
2023-08-12T10:12:43.452Z,5.60
2023-08-12T10:15:11.504Z,6.38
2023-08-12T10:17:43.465Z,6.18
2023-08-12T10:20:15.012Z,6.22
2023-08-12T10:22:44.075Z,5.75
2023-08-12T10:25:10.511Z,6.93
2023-08-12T10:27:37.912Z,6.38
2023-08-12T10:30:05.574Z,5.80
2023-08-12T10:32:33.299Z,5.65
2023-08-12T10:35:00.057Z,6.05
2023-08-12T10:37:27.300Z,5.80
2023-08-12T10:39:56.823Z,5.15
2023-08-12T10:42:43.517Z,5.75
2023-08-12T10:45:14.368Z,5.03
2023-08-12T10:48:10.583Z,5.40
2023-08-12T10:50:37.131Z,6.03
2023-08-12T10:53:31.008Z,4.93
2023-08-12T10:55:59.320Z,5.72
2023-08-12T10:58:28.185Z,5.28
2023-08-12T11:00:59.075Z,4.97
2023-08-12T11:03:25.551Z,4.60
2023-08-12T11:05:56.596Z,5.00
2023-08-12T11:08:28.307Z,5.60
2023-08-12T11:11:00.799Z,5.20
2023-08-12T11:13:30.146Z,5.15
2023-08-12T11:16:14.535Z,4.80
2023-08-12T11:18:41.933Z,4.78
2023-08-12T11:21:08.640Z,5.00
2023-08-12T11:23:37.502Z,4.88
2023-08-12T11:26:04.245Z,5.88
2023-08-12T11:28:30.687Z,5.03
2023-08-12T11:30:57.295Z,5.05
2023-08-12T11:33:24.795Z,5.03
2023-08-12T11:35:51.353Z,4.90
2023-08-12T11:38:19.131Z,5.00
2023-08-12T11:40:45.581Z,5.15
2023-08-12T11:43:12.117Z,5.18
2023-08-12T11:45:42.949Z,5.07
2023-08-12T11:48:10.782Z,4.90
2023-08-12T11:50:37.380Z,5.25
2023-08-12T11:53:04.056Z,5.82
2023-08-12T11:55:30.546Z,5.55
2023-08-12T11:57:59.105Z,5.95
2023-08-12T12:00:26.368Z,6.20
2023-08-12T12:02:57.091Z,5.65
2023-08-12T12:05:26.357Z,6.25
2023-08-12T12:07:53.808Z,5.95
2023-08-12T12:10:23.039Z,6.00
2023-08-12T12:12:49.803Z,6.60
2023-08-12T12:15:17.101Z,5.53
2023-08-12T12:17:46.121Z,6.45
2023-08-12T12:20:12.677Z,5.57
2023-08-12T12:22:39.297Z,6.00
2023-08-12T12:25:09.937Z,6.05
2023-08-12T12:30:04.126Z,6.18
2023-08-12T12:32:30.690Z,5.50
2023-08-12T12:34:57.212Z,5.68
2023-08-12T12:37:23.725Z,5.10
2023-08-12T12:39:50.185Z,5.70
2023-08-12T12:42:16.652Z,5.40
2023-08-12T12:44:43.092Z,5.38
2023-08-12T12:47:12.092Z,5.65
2023-08-12T12:49:39.148Z,5.93
2023-08-12T12:52:05.848Z,5.65
2023-08-12T12:54:32.288Z,5.22
2023-08-12T12:56:58.970Z,5.07
2023-08-12T12:59:25.399Z,5.15
2023-08-12T13:01:51.931Z,5.05
2023-08-12T13:04:18.475Z,5.10
2023-08-12T13:06:45.043Z,5.13
2023-08-12T13:09:11.560Z,4.78
2023-08-12T13:11:38.009Z,5.03
2023-08-12T13:14:04.963Z,5.20
2023-08-12T13:16:31.552Z,5.38
2023-08-12T13:19:01.874Z,5.05
2023-08-12T13:21:28.755Z,5.57
2023-08-12T13:23:56.350Z,5.47
2023-08-12T13:26:23.006Z,4.50
2023-08-12T13:28:49.473Z,4.43
2023-08-12T13:31:16.091Z,4.95
2023-08-12T13:33:42.567Z,4.93
2023-08-12T13:36:09.016Z,5.03
2023-08-12T13:38:35.451Z,4.82
2023-08-12T13:41:01.931Z,4.43
2023-08-12T13:43:28.761Z,4.78
2023-08-12T13:45:55.282Z,4.70
2023-08-12T13:48:21.786Z,5.00
2023-08-12T13:50:50.552Z,4.95
2023-08-12T13:53:17.116Z,4.60
2023-08-12T13:55:43.583Z,4.68
2023-08-12T13:58:10.034Z,4.40
2023-08-12T14:00:36.494Z,4.72
2023-08-12T14:03:03.169Z,4.55
2023-08-12T14:05:30.447Z,4.57
2023-08-12T14:07:56.936Z,3.63
2023-08-12T14:10:23.389Z,4.05
2023-08-12T14:12:52.011Z,4.03
2023-08-12T14:15:19.468Z,4.07
2023-08-12T14:17:46.021Z,4.03
2023-08-12T14:20:12.869Z,4.13
2023-08-12T14:22:39.273Z,4.57
2023-08-12T14:25:06.610Z,4.18
2023-08-12T14:27:33.221Z,3.70
2023-08-12T14:29:59.731Z,3.90
2023-08-12T14:32:26.237Z,3.63
2023-08-12T14:34:52.708Z,4.32
2023-08-12T14:37:19.164Z,3.95
2023-08-12T14:39:45.602Z,3.70
2023-08-12T14:42:12.460Z,4.18
2023-08-12T14:44:38.972Z,4.13
2023-08-12T14:47:05.952Z,3.65
2023-08-12T14:49:32.409Z,3.60
2023-08-12T14:51:58.888Z,3.88
2023-08-12T14:54:25.422Z,3.33
2023-08-12T14:56:51.920Z,3.20
2023-08-12T14:59:18.639Z,3.22
2023-08-12T15:01:45.086Z,4.13
2023-08-12T15:04:11.552Z,3.75
2023-08-12T15:06:38.003Z,4.75
2023-08-12T15:09:04.546Z,3.90
2023-08-12T15:11:31.043Z,3.58
2023-08-12T15:13:57.536Z,4.65
2023-08-12T15:16:24.062Z,3.70
2023-08-12T15:18:50.565Z,3.70
2023-08-12T15:21:17.274Z,4.03
2023-08-12T15:23:43.715Z,3.85
2023-08-12T15:26:10.170Z,3.72
2023-08-12T15:28:36.607Z,4.15
2023-08-12T15:31:03.173Z,4.10
2023-08-12T15:33:29.696Z,3.47
2023-08-12T15:35:56.186Z,3.72
2023-08-12T15:38:22.660Z,3.35
2023-08-12T15:40:49.177Z,3.38
2023-08-12T15:43:15.673Z,4.00
2023-08-12T15:45:43.388Z,3.80
2023-08-12T15:48:10.319Z,4.20
2023-08-12T15:50:37.255Z,3.70
2023-08-12T15:53:04.602Z,3.83
2023-08-12T15:55:31.080Z,4.18
2023-08-12T15:57:57.559Z,4.00
2023-08-12T16:00:24.015Z,3.90
2023-08-12T16:02:50.557Z,3.83
2023-08-12T16:05:17.075Z,3.90
2023-08-12T16:07:43.690Z,4.20
2023-08-12T16:10:10.555Z,3.85
2023-08-12T16:12:37.011Z,4.57
2023-08-12T16:15:03.602Z,3.80
2023-08-12T16:17:30.078Z,3.47
2023-08-12T16:19:57.298Z,3.55
2023-08-12T16:22:23.747Z,3.50
2023-08-12T16:24:50.255Z,3.80
2023-08-12T16:27:17.242Z,4.43
2023-08-12T16:29:43.682Z,4.25
2023-08-12T16:32:10.214Z,5.10
2023-08-12T16:34:36.726Z,4.35
2023-08-12T16:37:20.340Z,4.47
2023-08-12T16:39:48.205Z,4.47
2023-08-12T16:42:14.858Z,4.13
2023-08-12T16:44:41.499Z,4.45
2023-08-12T16:47:07.955Z,4.40
2023-08-12T16:49:34.399Z,4.93
2023-08-12T16:52:00.842Z,4.53
2023-08-12T16:54:27.830Z,3.60
2023-08-12T16:56:54.274Z,3.90
2023-08-12T16:59:21.133Z,4.43
2023-08-12T17:01:48.597Z,4.68
2023-08-12T17:04:15.073Z,4.53
2023-08-12T17:06:41.923Z,4.50
2023-08-12T17:09:16.447Z,4.15
2023-08-12T17:11:43.455Z,4.60
2023-08-12T17:14:10.587Z,5.25
2023-08-12T17:16:37.799Z,4.63
2023-08-12T17:19:04.470Z,4.85
2023-08-12T17:21:30.965Z,4.43
2023-08-12T17:23:57.431Z,3.97
2023-08-12T17:26:23.900Z,4.15
2023-08-12T17:28:52.142Z,3.83
2023-08-12T17:31:19.212Z,4.43
2023-08-12T17:33:46.460Z,4.70
2023-08-12T17:36:12.976Z,4.18
2023-08-12T17:38:39.425Z,4.40
2023-08-12T17:41:05.962Z,4.15
2023-08-12T17:43:32.463Z,4.63
2023-08-12T17:45:58.965Z,3.92
2023-08-12T17:48:25.429Z,4.25
2023-08-12T17:50:51.886Z,4.65
2023-08-12T17:53:18.402Z,4.50
2023-08-12T17:55:44.931Z,4.35
2023-08-12T17:58:11.394Z,4.45
2023-08-12T18:00:37.929Z,3.78
2023-08-12T18:03:04.618Z,4.30
2023-08-12T18:05:31.221Z,4.55
2023-08-12T18:07:57.679Z,3.78
2023-08-12T18:10:24.646Z,3.72
2023-08-12T18:12:51.110Z,3.47
2023-08-12T18:15:17.577Z,3.95
2023-08-12T18:17:44.224Z,3.67
2023-08-12T18:20:11.229Z,4.07
2023-08-12T18:22:37.705Z,3.63
2023-08-12T18:25:04.413Z,3.50
2023-08-12T18:27:30.842Z,3.60
2023-08-12T18:29:57.616Z,3.90
2023-08-12T18:32:24.091Z,4.10
2023-08-12T18:34:50.542Z,3.83
2023-08-12T18:37:17.012Z,4.10
2023-08-12T18:39:43.461Z,4.47
2023-08-12T18:42:11.573Z,4.35
2023-08-12T18:44:38.360Z,4.05
2023-08-12T18:47:05.070Z,4.82
2023-08-12T18:49:31.617Z,4.65
2023-08-12T18:51:58.095Z,3.70
2023-08-12T18:54:24.539Z,3.55
2023-08-12T18:56:51.123Z,4.07
2023-08-12T18:59:17.596Z,3.80
2023-08-12T19:01:44.046Z,3.78
2023-08-12T19:04:11.658Z,4.03
2023-08-12T19:06:38.121Z,3.47
2023-08-12T19:09:04.585Z,3.78
2023-08-12T19:11:31.019Z,3.28
2023-08-12T19:13:57.633Z,4.00
2023-08-12T19:16:24.101Z,4.07
2023-08-12T19:18:50.725Z,3.95
2023-08-12T19:21:17.164Z,4.00
2023-08-12T19:23:43.664Z,3.72
2023-08-12T19:26:10.104Z,4.00
2023-08-12T19:28:36.542Z,3.65
2023-08-12T19:31:03.123Z,4.05
2023-08-12T19:33:29.608Z,3.70
2023-08-12T19:35:56.074Z,4.20
2023-08-12T19:38:22.524Z,4.60
2023-08-12T19:40:49.016Z,4.30
2023-08-12T19:43:15.470Z,4.57
2023-08-12T19:45:42.376Z,4.32
2023-08-12T19:48:08.815Z,4.22
2023-08-12T19:50:37.427Z,4.40
2023-08-12T19:53:04.688Z,4.20
2023-08-12T19:55:31.195Z,4.82
2023-08-12T19:57:57.627Z,4.90
2023-08-12T20:00:24.119Z,5.10
2023-08-12T20:02:50.691Z,4.88
2023-08-12T20:05:19.209Z,4.57
2023-08-12T20:07:47.910Z,4.60
2023-08-12T20:10:21.376Z,4.50
2023-08-12T20:12:48.158Z,4.95
2023-08-12T20:15:15.045Z,5.22
2023-08-12T20:17:42.488Z,4.65
2023-08-12T20:20:13.075Z,4.60
2023-08-12T20:22:59.159Z,4.97
2023-08-12T20:25:31.197Z,5.65
2023-08-12T20:27:59.209Z,4.18
2023-08-12T20:30:26.531Z,4.82
2023-08-12T20:32:54.793Z,4.80
2023-08-12T20:35:21.603Z,4.22
2023-08-12T20:37:48.094Z,3.83
2023-08-12T20:40:14.922Z,4.30
2023-08-12T20:42:41.610Z,3.95
2023-08-12T20:45:08.638Z,3.90
2023-08-12T20:47:35.384Z,3.55
2023-08-12T20:50:02.417Z,3.60
2023-08-12T20:52:28.898Z,3.65
2023-08-12T20:54:55.347Z,3.33
2023-08-12T20:57:21.803Z,3.83
2023-08-12T20:59:48.353Z,3.40
2023-08-12T21:02:15.348Z,3.75
2023-08-12T21:04:42.293Z,3.30
2023-08-12T21:07:08.946Z,3.10
2023-08-12T21:09:35.474Z,2.97
2023-08-12T21:12:03.649Z,3.10
2023-08-12T21:14:30.232Z,4.13
2023-08-12T21:16:56.756Z,3.40
2023-08-12T21:19:23.239Z,3.50
2023-08-12T21:21:49.700Z,3.33
2023-08-12T21:24:16.198Z,3.40
2023-08-12T21:26:42.619Z,2.72
2023-08-12T21:29:09.076Z,3.22
2023-08-12T21:31:35.550Z,3.40
2023-08-12T21:34:02.030Z,3.22
2023-08-12T21:36:28.521Z,2.95
2023-08-12T21:38:54.967Z,3.67
2023-08-12T21:41:21.429Z,2.97
2023-08-12T21:43:48.372Z,3.63
2023-08-12T21:46:14.916Z,2.83
2023-08-12T21:48:41.445Z,3.05
2023-08-12T21:51:09.638Z,2.53
2023-08-12T21:53:36.118Z,2.58
2023-08-12T21:56:02.573Z,3.10
2023-08-12T21:58:29.028Z,3.75
2023-08-12T22:00:58.359Z,3.13
2023-08-12T22:03:24.813Z,2.78
2023-08-12T22:05:52.049Z,2.80
2023-08-12T22:08:18.524Z,2.80
2023-08-12T22:10:45.426Z,2.75
2023-08-12T22:13:11.965Z,2.70
2023-08-12T22:15:38.465Z,2.95
2023-08-12T22:18:05.175Z,3.20
2023-08-12T22:20:31.722Z,2.78
2023-08-12T22:22:58.193Z,2.97
2023-08-12T22:25:24.652Z,2.50
2023-08-12T22:27:51.219Z,2.80
2023-08-12T22:30:17.741Z,2.72
2023-08-12T22:32:44.975Z,2.60
2023-08-12T22:35:12.086Z,2.47
2023-08-12T22:37:38.527Z,2.50
2023-08-12T22:40:06.296Z,2.63
2023-08-12T22:42:32.764Z,2.83
2023-08-12T22:44:59.186Z,2.95
2023-08-12T22:47:25.674Z,3.10
2023-08-12T22:49:52.118Z,2.78
2023-08-12T22:52:18.554Z,3.65
2023-08-12T22:54:44.993Z,2.67
2023-08-12T22:57:11.435Z,3.17
2023-08-12T22:59:37.862Z,2.85
2023-08-12T23:02:04.434Z,2.95
2023-08-12T23:04:30.925Z,2.90
2023-08-12T23:06:57.511Z,3.13
2023-08-12T23:09:23.981Z,3.80
2023-08-12T23:11:50.416Z,2.90
2023-08-12T23:14:16.861Z,3.03
2023-08-12T23:16:43.463Z,3.08
2023-08-12T23:19:12.211Z,3.10
2023-08-12T23:21:39.044Z,3.15
2023-08-12T23:24:05.832Z,3.08
2023-08-12T23:26:32.284Z,3.00
2023-08-12T23:28:58.739Z,3.08
2023-08-12T23:31:25.241Z,2.92
2023-08-12T23:33:51.781Z,3.00
2023-08-12T23:36:19.221Z,3.08
2023-08-12T23:38:45.964Z,3.15
2023-08-12T23:41:12.530Z,3.47
2023-08-12T23:43:38.962Z,3.10
2023-08-12T23:46:05.451Z,3.15
2023-08-12T23:48:31.923Z,3.08
2023-08-12T23:50:58.345Z,4.05
2023-08-12T23:53:24.840Z,3.60
2023-08-12T23:55:51.276Z,4.57
2023-08-12T23:58:17.736Z,3.83
